Tyrone, Colorado
Current Conditions -  °F | °C
As of 10:54 PM on Tuesday 25 Nov 2014 (Local Time) from KTAD Reporting Station
Clear Clear  
Wind Chill: 33°   Ceiling: Unl
Heat Index: 39°   Visibility: 10mi
Dew Point: 21°   Wind: 8mph
Humidity: 49%   Direction: 270°W
Pressure: 30.03"   Gusts: NA
Location:  37.5307°N, 104.063°W
Report Text: KTAD 260554Z AUTO 27007KT 10SM CLR 04/M06 A3003 RMK AO2 SLP158 T00391061 10072 20017 51007
Loading
Personal Weather Stations






























Interactive Weather Map New forecast layout! Learn more

10-Day Weather Forecast

Advertisements
Track Severe Weather on mobile